createdAt,value
2022-11-20T00:34:27.466Z,23.60
2022-11-20T00:41:01.359Z,24.92
2022-11-20T00:51:46.624Z,24.92
2022-11-20T01:24:50.493Z,24.50
2022-11-20T01:36:57.355Z,26.75
2022-11-20T01:44:50.802Z,26.55
2022-11-20T01:48:25.554Z,27.60
2022-11-20T01:52:19.617Z,31.52
2022-11-20T02:00:34.187Z,28.75
2022-11-20T02:04:55.854Z,28.20
2022-11-20T02:07:47.783Z,28.58
2022-11-20T02:11:16.925Z,29.00
2022-11-20T02:14:45.465Z,30.20
2022-11-20T02:17:49.098Z,30.30
2022-11-20T02:21:34.585Z,31.23
2022-11-20T02:25:19.616Z,29.85
2022-11-20T02:29:00.423Z,30.55
2022-11-20T02:32:10.488Z,30.08
2022-11-20T02:35:38.154Z,33.25
2022-11-20T02:38:54.675Z,32.38
2022-11-20T02:42:03.593Z,33.13
2022-11-20T02:45:06.455Z,33.15
2022-11-20T02:48:23.658Z,32.00
2022-11-20T02:51:24.183Z,31.85
2022-11-20T02:54:15.388Z,33.30
2022-11-20T03:00:43.675Z,34.80
2022-11-20T03:03:51.944Z,33.60
2022-11-20T03:06:53.950Z,33.78
2022-11-20T03:09:59.892Z,32.33
2022-11-20T03:12:48.283Z,36.15
2022-11-20T03:16:18.793Z,37.80
2022-11-20T03:19:35.160Z,35.10
2022-11-20T03:22:23.481Z,36.92
2022-11-20T03:25:11.688Z,33.90
2022-11-20T03:28:06.069Z,31.58
2022-11-20T03:31:24.973Z,33.35
2022-11-20T03:34:16.156Z,32.80
2022-11-20T03:37:16.003Z,30.98
2022-11-20T03:40:12.397Z,33.35
2022-11-20T03:43:10.979Z,30.50
2022-11-20T03:46:12.682Z,30.42
2022-11-20T03:49:04.820Z,29.83
2022-11-20T03:52:10.499Z,30.23
2022-11-20T03:55:22.609Z,29.65
2022-11-20T03:58:15.355Z,29.35
2022-11-20T04:01:18.276Z,26.90
2022-11-20T04:04:13.570Z,28.08
2022-11-20T04:07:02.104Z,29.15
2022-11-20T04:09:59.929Z,27.38
2022-11-20T04:13:06.977Z,27.90
2022-11-20T04:16:07.002Z,29.42
2022-11-20T04:19:28.431Z,29.25
2022-11-20T04:22:19.535Z,29.50
2022-11-20T04:25:19.548Z,28.40
2022-11-20T04:28:18.753Z,28.42
2022-11-20T04:31:25.726Z,31.58
2022-11-20T04:34:32.575Z,29.27
2022-11-20T04:37:42.543Z,29.40
2022-11-20T04:40:37.669Z,29.85
2022-11-20T04:43:38.641Z,28.05
2022-11-20T04:46:29.395Z,27.52
2022-11-20T04:49:26.795Z,29.67
2022-11-20T04:52:26.610Z,29.52
2022-11-20T04:55:17.288Z,30.48
2022-11-20T04:58:05.789Z,29.92
2022-11-20T05:01:14.032Z,28.88
2022-11-20T05:04:36.671Z,28.52
2022-11-20T05:07:58.240Z,28.27
2022-11-20T05:11:06.125Z,25.20
2022-11-20T05:14:22.937Z,26.83
2022-11-20T05:17:21.062Z,26.45
2022-11-20T05:20:11.073Z,28.52
2022-11-20T05:23:01.885Z,29.13
2022-11-20T05:25:59.133Z,29.15
2022-11-20T05:28:55.654Z,27.77
2022-11-20T05:35:49.037Z,26.08
2022-11-20T05:38:43.301Z,27.15
2022-11-20T05:42:25.224Z,27.48
2022-11-20T05:45:25.381Z,26.25
2022-11-20T05:48:27.187Z,27.88
2022-11-20T05:51:36.293Z,27.83
2022-11-20T05:54:43.235Z,29.45
2022-11-20T05:57:57.213Z,28.40
2022-11-20T06:01:12.799Z,29.42
2022-11-20T06:04:11.588Z,29.52
2022-11-20T06:07:53.139Z,29.15
2022-11-20T06:11:03.917Z,30.13
2022-11-20T06:13:59.185Z,30.05
2022-11-20T06:17:02.378Z,31.38
2022-11-20T06:19:50.867Z,31.45
2022-11-20T06:23:13.565Z,32.13
2022-11-20T06:26:35.365Z,31.00
2022-11-20T06:46:16.795Z,32.97
2022-11-20T07:04:34.151Z,39.15
2022-11-20T07:07:39.480Z,38.72
2022-11-20T07:28:19.978Z,38.63
2022-11-20T07:53:37.367Z,38.17
2022-11-20T08:14:07.907Z,40.80
2022-11-20T08:17:18.331Z,44.58
2022-11-20T08:20:20.963Z,41.05
2022-11-20T08:23:09.440Z,43.25
2022-11-20T08:25:59.709Z,42.20
2022-11-20T08:28:47.792Z,41.50
2022-11-20T08:31:35.906Z,40.58
2022-11-20T08:34:24.372Z,39.78
2022-11-20T08:37:12.643Z,41.83
2022-11-20T08:40:00.557Z,41.08
2022-11-20T08:42:50.176Z,41.00
2022-11-20T08:45:38.033Z,43.05
2022-11-20T08:48:28.762Z,40.75
2022-11-20T08:51:20.231Z,38.92
2022-11-20T08:54:09.134Z,40.75
2022-11-20T08:56:57.011Z,41.08
2022-11-20T09:00:05.082Z,40.35
2022-11-20T09:02:53.454Z,37.20
2022-11-20T09:05:41.404Z,38.03
2022-11-20T09:08:32.487Z,36.05
2022-11-20T09:11:28.414Z,38.35
2022-11-20T09:14:16.586Z,39.30
2022-11-20T09:17:04.659Z,40.55
2022-11-20T09:19:52.550Z,40.97
2022-11-20T09:22:42.071Z,40.97
2022-11-20T09:25:32.587Z,41.25
2022-11-20T09:28:25.157Z,39.28
2022-11-20T09:31:27.012Z,41.35
2022-11-20T09:34:15.479Z,40.60
2022-11-20T09:37:06.391Z,39.05
2022-11-20T09:53:28.720Z,34.33
2022-11-20T09:56:37.586Z,34.00
2022-11-20T10:00:05.259Z,35.60
2022-11-20T10:03:47.165Z,31.67
2022-11-20T10:07:10.495Z,33.97
2022-11-20T10:14:18.280Z,33.17
2022-11-20T10:17:57.762Z,30.98
2022-11-20T10:21:36.399Z,33.75
2022-11-20T10:24:59.213Z,33.85
2022-11-20T10:28:24.348Z,32.30
2022-11-20T10:31:38.414Z,31.80
2022-11-20T10:35:02.790Z,30.30
2022-11-20T10:38:10.102Z,31.85
2022-11-20T10:41:51.379Z,32.53
2022-11-20T10:45:05.698Z,32.42
2022-11-20T10:48:18.372Z,32.92
2022-11-20T10:51:53.343Z,32.10
2022-11-20T10:54:59.462Z,32.30
2022-11-20T10:58:08.503Z,31.42
2022-11-20T11:01:16.740Z,31.23
2022-11-20T11:04:39.556Z,31.73
2022-11-20T11:07:47.934Z,31.50
2022-11-20T11:10:59.529Z,32.42
2022-11-20T11:13:52.263Z,31.60
2022-11-20T11:16:58.690Z,32.25
2022-11-20T11:20:02.585Z,32.78
2022-11-20T11:22:59.618Z,35.28
2022-11-20T11:26:05.296Z,32.95
2022-11-20T11:28:59.488Z,35.22
2022-11-20T11:31:47.780Z,32.67
2022-11-20T11:34:38.346Z,34.58
2022-11-20T11:37:37.072Z,36.70
2022-11-20T11:41:00.338Z,37.83
2022-11-20T11:44:23.853Z,42.40
2022-11-20T11:47:43.440Z,40.17
2022-11-20T11:50:34.830Z,40.13
2022-11-20T11:53:26.996Z,40.38
2022-11-20T11:56:19.247Z,39.30
2022-11-20T11:59:16.629Z,41.10
2022-11-20T12:02:44.644Z,41.53
2022-11-20T12:05:44.274Z,36.10
2022-11-20T12:08:44.389Z,35.03
2022-11-20T12:11:55.874Z,36.28
2022-11-20T12:14:48.212Z,36.72
2022-11-20T12:17:38.816Z,36.22
2022-11-20T12:20:48.838Z,37.08
2022-11-20T12:23:57.352Z,35.92
2022-11-20T12:27:16.456Z,39.10
2022-11-20T12:30:15.832Z,39.15
2022-11-20T12:33:22.894Z,36.75
2022-11-20T12:36:44.277Z,35.30
2022-11-20T12:39:49.370Z,38.03
2022-11-20T12:43:33.794Z,38.15
2022-11-20T12:46:47.427Z,40.35
2022-11-20T12:50:13.747Z,38.92
2022-11-20T12:53:12.723Z,39.70
2022-11-20T12:56:25.839Z,41.97
2022-11-20T12:59:22.928Z,41.20
2022-11-20T13:02:30.030Z,39.40
2022-11-20T13:05:42.860Z,39.15
2022-11-20T13:08:43.792Z,36.92
2022-11-20T13:12:01.923Z,38.40
2022-11-20T13:15:33.261Z,39.10
2022-11-20T13:18:22.288Z,39.75
2022-11-20T13:21:42.419Z,38.67
2022-11-20T13:24:34.063Z,40.80
2022-11-20T13:27:32.030Z,38.15
2022-11-20T13:30:36.734Z,39.67
2022-11-20T13:33:38.468Z,39.53
2022-11-20T13:36:34.196Z,39.22
2022-11-20T13:39:40.433Z,38.78
2022-11-20T13:42:32.081Z,37.78
2022-11-20T13:45:30.149Z,39.72
2022-11-20T13:48:42.489Z,42.00
2022-11-20T13:51:51.732Z,41.20
2022-11-20T13:55:03.210Z,40.72
2022-11-20T13:57:57.395Z,41.85
2022-11-20T14:01:32.540Z,43.40
2022-11-20T14:04:33.585Z,43.50
2022-11-20T14:07:29.367Z,42.90
2022-11-20T14:10:35.850Z,41.75
2022-11-20T14:13:28.024Z,42.95
2022-11-20T14:16:25.438Z,43.40
2022-11-20T14:19:22.672Z,42.33
2022-11-20T14:22:28.172Z,41.85
2022-11-20T14:25:16.632Z,42.38
2022-11-20T14:28:06.009Z,43.00
2022-11-20T14:30:57.329Z,43.97
2022-11-20T14:33:45.758Z,43.25
2022-11-20T14:36:33.629Z,44.20
2022-11-20T14:39:25.378Z,43.03
2022-11-20T14:42:25.091Z,43.05
2022-11-20T14:45:13.730Z,41.75
2022-11-20T14:48:01.790Z,42.95
2022-11-20T14:50:49.627Z,41.90
2022-11-20T14:53:40.876Z,39.83
2022-11-20T14:56:31.929Z,39.58
2022-11-20T14:59:27.901Z,38.92
2022-11-20T15:02:20.731Z,38.97
2022-11-20T15:05:09.194Z,41.58
2022-11-20T15:08:10.871Z,38.85
2022-11-20T15:10:59.589Z,40.67
2022-11-20T15:13:47.731Z,41.42
2022-11-20T15:16:35.854Z,42.70
2022-11-20T15:19:26.471Z,40.95
2022-11-20T15:22:15.302Z,42.10
2022-11-20T15:25:06.197Z,42.30
2022-11-20T15:27:59.362Z,43.38
2022-11-20T15:30:49.786Z,40.83
2022-11-20T15:33:37.863Z,43.50
2022-11-20T15:36:28.034Z,40.60
2022-11-20T15:39:16.511Z,41.53
2022-11-20T15:42:04.446Z,41.05
2022-11-20T15:44:52.278Z,40.78
2022-11-20T15:47:42.410Z,37.88
2022-11-20T15:50:42.711Z,46.65
2022-11-20T15:53:34.191Z,42.03
2022-11-20T15:56:27.314Z,39.63
2022-11-20T15:59:26.144Z,38.40
2022-11-20T16:02:24.909Z,36.30
2022-11-20T16:05:24.317Z,37.70
2022-11-20T16:08:12.919Z,40.22
2022-11-20T16:11:01.452Z,38.25
2022-11-20T16:14:10.560Z,36.25
2022-11-20T16:17:02.724Z,36.00
2022-11-20T16:20:02.618Z,37.97
2022-11-20T16:22:58.208Z,36.92
2022-11-20T16:25:46.881Z,37.65
2022-11-20T16:28:41.297Z,37.90
2022-11-20T16:31:30.278Z,36.92
2022-11-20T16:34:22.692Z,38.15
2022-11-20T16:37:12.909Z,34.75
2022-11-20T16:40:01.488Z,37.55
2022-11-20T16:43:22.283Z,35.60
2022-11-20T16:46:19.672Z,35.22
2022-11-20T16:49:40.379Z,39.13
2022-11-20T16:52:46.445Z,36.17
2022-11-20T16:55:40.404Z,38.80
2022-11-20T17:01:56.811Z,38.38
2022-11-20T18:16:53.559Z,49.13
2022-11-20T18:20:21.848Z,47.88
2022-11-20T18:23:14.590Z,42.78
2022-11-20T18:26:20.203Z,41.85
2022-11-20T18:29:11.903Z,41.65
2022-11-20T18:32:03.716Z,50.85
2022-11-20T18:34:52.142Z,48.55
2022-11-20T18:37:46.859Z,42.22
2022-11-20T18:40:39.621Z,38.38
2022-11-20T18:44:00.166Z,38.65
2022-11-20T18:46:58.514Z,34.03
2022-11-20T18:53:57.807Z,38.17
2022-11-20T18:56:51.066Z,38.88
2022-11-20T19:00:05.075Z,41.67
2022-11-20T19:07:18.996Z,45.30
2022-11-20T19:10:20.951Z,38.63
2022-11-20T19:13:48.278Z,36.50
2022-11-20T19:21:27.951Z,33.67
2022-11-20T19:27:57.404Z,37.55
2022-11-20T19:30:50.515Z,31.95
2022-11-20T19:34:17.859Z,32.08
2022-11-20T19:37:04.359Z,32.45
2022-11-20T19:40:11.237Z,33.78
2022-11-20T19:43:34.647Z,28.98
2022-11-20T19:46:23.802Z,23.23
2022-11-20T19:49:18.121Z,19.17
2022-11-20T19:53:00.866Z,15.57
2022-11-20T19:56:51.602Z,12.30
2022-11-20T20:07:43.851Z,6.23
2022-11-20T20:10:59.669Z,6.65
2022-11-20T20:41:57.381Z,3.60
2022-11-20T20:45:17.682Z,3.30
2022-11-20T20:48:12.432Z,2.92
2022-11-20T20:51:58.078Z,3.25
2022-11-20T21:06:02.235Z,3.55
2022-11-20T21:58:12.543Z,3.47
2022-11-20T22:02:17.600Z,3.25
2022-11-20T22:05:34.185Z,3.42
2022-11-20T22:18:47.802Z,2.90
2022-11-20T22:34:15.683Z,3.50
2022-11-20T22:38:12.111Z,3.88
2022-11-20T22:41:50.440Z,3.67
2022-11-20T22:52:46.440Z,4.20
2022-11-20T22:56:16.866Z,4.32
2022-11-20T22:59:24.245Z,4.65
2022-11-20T23:02:39.274Z,6.20
2022-11-20T23:06:38.284Z,3.80
2022-11-20T23:09:34.285Z,4.00
2022-11-20T23:12:33.958Z,3.80
2022-11-20T23:19:51.468Z,4.43
2022-11-20T23:30:27.571Z,4.32
2022-11-20T23:38:27.608Z,4.18
2022-11-20T23:44:25.626Z,3.47
